Time;durP1;ratioP1;P1;durP2;ratioP2;P2;SDS_P1;SDS_P2;PMS_P1;PMS_P2;Temp;Humidity;BMP_temperature;BMP_pressure;BME280_temperature;BME280_humidity;BME280_pressure;Samples;Min_cycle;Max_cycle;Signal;HPM_P1;HPM_P2
2023/01/15 00:01:01;;;;;;;22.10;20.57;;;6.40;87.50;;;;;;4995196;28;20182;-91
2023/01/15 00:03:27;;;;;;;22.57;21.07;;;6.30;87.80;;;;;;4994884;28;20213;-92
2023/01/15 00:05:53;;;;;;;22.73;21.03;;;6.30;88.00;;;;;;4994943;28;20193;-91
2023/01/15 00:08:18;;;;;;;23.40;21.53;;;6.30;88.10;;;;;;4996079;28;20174;-92
2023/01/15 00:10:44;;;;;;;23.30;21.37;;;6.30;88.20;;;;;;4995611;28;20180;-92
2023/01/15 00:13:10;;;;;;;23.60;21.87;;;6.30;88.30;;;;;;4995548;28;20194;-92
2023/01/15 00:15:36;;;;;;;23.30;21.50;;;6.30;88.30;;;;;;4995546;28;20175;-92
2023/01/15 00:18:01;;;;;;;21.03;19.33;;;6.30;88.40;;;;;;4995588;28;20237;-91
2023/01/15 00:20:27;;;;;;;18.87;17.23;;;6.20;88.60;;;;;;4994834;28;20551;-92
2023/01/15 00:22:53;;;;;;;21.20;19.27;;;6.30;88.40;;;;;;4994347;28;20722;-91
2023/01/15 00:28:03;;;;;;;21.37;19.43;;;6.30;88.60;;;;;;4994736;28;20165;-91
2023/01/15 00:30:29;;;;;;;20.07;18.53;;;6.30;88.60;;;;;;4993566;28;20560;-91
2023/01/15 00:32:55;;;;;;;20.80;19.20;;;6.30;88.50;;;;;;4993504;28;20197;-92
2023/01/15 00:35:22;;;;;;;21.07;19.57;;;6.30;88.40;;;;;;4994482;28;20185;-91
2023/01/15 00:37:48;;;;;;;20.37;18.83;;;6.30;88.40;;;;;;4993348;28;20265;-91
2023/01/15 00:40:15;;;;;;;20.07;18.60;;;6.30;88.30;;;;;;4993393;28;20633;-91
2023/01/15 00:42:41;;;;;;;20.63;19.33;;;6.30;88.30;;;;;;4993180;28;20289;-91
2023/01/15 00:45:09;;;;;;;20.50;18.50;;;6.20;88.30;;;;;;4993482;28;20292;-91
2023/01/15 00:47:43;;;;;;;20.13;18.47;;;6.30;87.90;;;;;;4993216;28;20297;-91
2023/01/15 00:50:13;;;;;;;18.97;17.73;;;6.30;88.10;;;;;;4994692;28;20536;-91
2023/01/15 00:52:39;;;;;;;19.50;18.10;;;6.30;88.10;;;;;;4994726;28;20209;-90
2023/01/15 00:55:06;;;;;;;18.10;16.60;;;6.30;88.20;;;;;;4993042;28;20178;-91
2023/01/15 00:57:32;;;;;;;20.50;18.63;;;6.30;88.20;;;;;;4993960;28;20174;-90
2023/01/15 00:59:58;;;;;;;20.43;18.80;;;6.30;88.20;;;;;;4994033;28;20251;-91
2023/01/15 01:02:23;;;;;;;19.03;17.90;;;6.30;88.50;;;;;;4993001;28;20177;-90
2023/01/15 01:04:49;;;;;;;20.10;18.70;;;6.30;88.40;;;;;;4993961;28;20209;-91
2023/01/15 01:07:17;;;;;;;21.27;19.70;;;6.30;88.50;;;;;;4993788;28;20178;-91
2023/01/15 01:09:43;;;;;;;22.40;20.90;;;6.20;88.90;;;;;;4993541;28;20175;-91
2023/01/15 01:12:09;;;;;;;22.10;20.37;;;6.20;89.10;;;;;;4993058;28;20261;-90
2023/01/15 01:14:36;;;;;;;21.40;20.03;;;6.20;89.20;;;;;;4992661;28;20237;-91
2023/01/15 01:17:02;;;;;;;22.37;20.63;;;6.30;89.20;;;;;;4992872;28;20648;-91
2023/01/15 01:19:28;;;;;;;23.00;21.50;;;6.20;89.50;;;;;;4992790;28;20193;-90
2023/01/15 01:21:53;;;;;;;23.73;21.90;;;6.20;89.70;;;;;;4994394;28;20178;-90
2023/01/15 01:24:21;;;;;;;29.30;22.50;;;6.30;89.60;;;;;;4957210;28;1071277;-90
2023/01/15 01:26:47;;;;;;;24.17;22.70;;;6.30;89.70;;;;;;4994503;28;20174;-90
2023/01/15 01:29:15;;;;;;;24.50;22.87;;;6.20;90.00;;;;;;4993179;28;20184;-90
2023/01/15 01:31:41;;;;;;;24.60;22.60;;;6.20;90.00;;;;;;4994392;28;20174;-90
2023/01/15 01:34:08;;;;;;;23.80;22.20;;;6.20;90.00;;;;;;4993232;28;20687;-91
2023/01/15 01:36:43;;;;;;;25.43;23.77;;;6.30;90.00;;;;;;4994603;28;20178;-90
2023/01/15 01:39:14;;;;;;;24.33;22.60;;;6.30;90.20;;;;;;4993012;28;20532;-90
2023/01/15 01:41:39;;;;;;;25.67;23.53;;;6.20;90.10;;;;;;4994708;28;20167;-91
2023/01/15 01:44:26;;;;;;;24.53;22.47;;;6.30;90.20;;;;;;4993360;28;20202;-90
2023/01/15 01:46:52;;;;;;;24.87;22.90;;;6.30;90.20;;;;;;4992925;28;20722;-90
2023/01/15 01:49:18;;;;;;;25.73;23.90;;;6.30;90.20;;;;;;4993334;28;20267;-89
2023/01/15 01:51:49;;;;;;;24.53;22.73;;;6.30;90.40;;;;;;4993260;28;20178;-89
2023/01/15 01:54:18;;;;;;;24.77;22.90;;;6.30;90.00;;;;;;4992931;28;20688;-90
2023/01/15 01:56:44;;;;;;;22.87;21.23;;;6.40;89.90;;;;;;4992788;28;20182;-90
2023/01/15 01:59:11;;;;;;;24.10;22.40;;;6.40;90.00;;;;;;4994130;28;20206;-89
2023/01/15 02:01:36;;;;;;;26.90;24.67;;;6.30;90.10;;;;;;4994021;28;20655;-90
2023/01/15 02:04:06;;;;;;;24.23;21.90;;;6.40;90.10;;;;;;4992515;28;20205;-90
2023/01/15 02:06:33;;;;;;;24.70;23.10;;;6.40;90.00;;;;;;4992594;28;20190;-87
2023/01/15 02:08:58;;;;;;;22.50;21.00;;;6.30;89.90;;;;;;4993929;28;20177;-90
2023/01/15 02:11:24;;;;;;;23.40;21.87;;;6.30;89.70;;;;;;4992537;28;20174;-89
2023/01/15 02:13:59;;;;;;;19.37;17.60;;;6.30;89.70;;;;;;4993834;28;20221;-89
2023/01/15 02:16:50;;;;;;;21.37;19.67;;;6.30;89.60;;;;;;4992791;28;20261;-89
2023/01/15 02:19:48;;;;;;;21.20;19.47;;;6.40;89.50;;;;;;4994152;28;20170;-90
2023/01/15 02:22:43;;;;;;;22.50;20.60;;;6.30;89.50;;;;;;4996438;28;20632;-91
2023/01/15 02:25:53;;;;;;;20.80;19.50;;;6.30;89.40;;;;;;4997666;28;20213;-90
2023/01/15 02:28:24;;;;;;;20.53;18.73;;;6.30;89.20;;;;;;4970433;28;20190;-90
2023/01/15 02:31:11;;;;;;;19.90;18.33;;;6.40;89.20;;;;;;4996695;28;20186;-90
2023/01/15 02:33:42;;;;;;;21.47;19.53;;;6.30;89.20;;;;;;4998218;28;20656;-90
2023/01/15 02:36:11;;;;;;;19.67;18.17;;;6.30;89.10;;;;;;4997593;28;20217;-90
2023/01/15 02:38:43;;;;;;;21.87;20.00;;;6.40;88.90;;;;;;4997696;28;20178;-89
2023/01/15 02:41:16;;;;;;;21.20;19.40;;;6.30;89.30;;;;;;4997416;28;20244;-89
2023/01/15 02:43:46;;;;;;;21.23;19.60;;;6.30;89.20;;;;;;4996086;28;20692;-90
2023/01/15 02:46:14;;;;;;;21.53;19.73;;;6.30;89.10;;;;;;4996185;28;20173;-89
2023/01/15 02:48:43;;;;;;;19.53;18.00;;;6.30;89.00;;;;;;4997216;28;20184;-90
2023/01/15 02:51:14;;;;;;;20.60;18.70;;;6.40;88.60;;;;;;4996090;28;20189;-90
2023/01/15 02:53:43;;;;;;;19.77;17.73;;;6.40;88.90;;;;;;4996084;28;20205;-90
2023/01/15 02:56:13;;;;;;;22.23;20.27;;;6.30;88.90;;;;;;4997186;28;20217;-90
2023/01/15 02:58:42;;;;;;;21.00;19.20;;;6.30;89.30;;;;;;4997793;28;20166;-90
2023/01/15 03:01:21;;;;;;;19.00;17.80;;;6.30;89.10;;;;;;4995858;28;20265;-90
2023/01/15 03:04:10;;;;;;;20.20;18.23;;;6.30;89.00;;;;;;4995910;28;20618;-90
2023/01/15 03:06:54;;;;;;;19.70;17.63;;;6.30;88.70;;;;;;4995875;28;20178;-90
2023/01/15 03:09:20;;;;;;;18.60;16.80;;;6.30;88.70;;;;;;4996974;28;20176;-90
2023/01/15 03:11:53;;;;;;;20.47;18.60;;;6.30;88.60;;;;;;4997185;28;20205;-90
2023/01/15 03:14:49;;;;;;;20.83;18.13;;;6.30;88.90;;;;;;4995693;28;20202;-90
2023/01/15 03:17:23;;;;;;;18.53;17.07;;;6.30;88.70;;;;;;4997029;28;20244;-90
2023/01/15 03:20:07;;;;;;;21.20;18.30;;;6.30;88.60;;;;;;4996205;28;20535;-89
2023/01/15 03:22:36;;;;;;;19.97;18.07;;;6.30;88.80;;;;;;4996511;28;20178;-90
2023/01/15 03:25:13;;;;;;;22.53;18.73;;;6.30;88.90;;;;;;4996652;28;20582;-90
2023/01/15 03:27:39;;;;;;;19.57;17.70;;;6.30;88.60;;;;;;4996620;28;20162;-90
2023/01/15 03:30:20;;;;;;;21.53;19.60;;;6.30;88.70;;;;;;4996819;28;20174;-90
2023/01/15 03:32:46;;;;;;;19.43;17.50;;;6.30;88.90;;;;;;4994558;28;20198;-90
2023/01/15 03:35:51;;;;;;;19.43;17.47;;;6.30;88.50;;;;;;4996358;28;20190;-89
2023/01/15 03:38:20;;;;;;;18.77;17.13;;;6.30;88.40;;;;;;4996531;28;20599;-90
2023/01/15 03:41:07;;;;;;;18.63;17.03;;;6.30;88.20;;;;;;4995125;28;20186;-90
2023/01/15 03:44:00;;;;;;;19.20;17.50;;;6.30;88.30;;;;;;4996501;28;20209;-89
2023/01/15 03:46:36;;;;;;;19.03;17.13;;;6.30;88.10;;;;;;4996145;28;20213;-91
2023/01/15 03:49:23;;;;;;;18.60;16.40;;;6.30;88.10;;;;;;4996188;28;20639;-91
2023/01/15 03:52:20;;;;;;;17.27;15.87;;;6.30;87.90;;;;;;4996449;28;20189;-90
2023/01/15 03:55:08;;;;;;;16.40;15.10;;;6.30;87.80;;;;;;4993481;28;20220;-89
2023/01/15 03:57:39;;;;;;;19.70;16.27;;;6.30;87.80;;;;;;4996038;28;20166;-90
2023/01/15 04:00:31;;;;;;;21.30;17.47;;;6.30;87.80;;;;;;4994862;28;20209;-90
2023/01/15 04:02:58;;;;;;;18.53;16.77;;;6.30;87.90;;;;;;4995864;28;20233;-90
2023/01/15 04:05:26;;;;;;;16.87;14.63;;;6.30;88.00;;;;;;4995879;28;20194;-89
2023/01/15 04:07:53;;;;;;;17.60;15.83;;;6.30;87.80;;;;;;4994836;28;20178;-90
2023/01/15 04:10:18;;;;;;;17.50;15.73;;;6.30;87.90;;;;;;4995984;28;20178;-90
2023/01/15 04:12:44;;;;;;;18.70;16.90;;;6.30;87.70;;;;;;4996177;28;20252;-90
2023/01/15 04:15:11;;;;;;;17.60;16.30;;;6.30;88.00;;;;;;4995046;28;20269;-90
2023/01/15 04:17:37;;;;;;;16.90;15.53;;;6.30;88.00;;;;;;4994564;28;20665;-90
2023/01/15 04:20:05;;;;;;;16.77;15.17;;;6.30;87.60;;;;;;4994491;28;20224;-90
2023/01/15 04:22:30;;;;;;;19.67;16.03;;;6.30;87.40;;;;;;4995310;28;20181;-90
2023/01/15 04:24:56;;;;;;;19.80;17.83;;;6.30;87.80;;;;;;4995411;28;20198;-90
2023/01/15 04:27:21;;;;;;;26.20;16.80;;;6.30;87.60;;;;;;4994229;28;20178;-90
2023/01/15 04:29:47;;;;;;;17.23;15.40;;;6.30;87.40;;;;;;4995402;28;20213;-90
2023/01/15 04:32:13;;;;;;;17.33;15.30;;;6.30;87.30;;;;;;4995435;28;20178;-90
2023/01/15 04:34:39;;;;;;;20.13;15.47;;;6.30;87.10;;;;;;4995302;28;20203;-90
2023/01/15 04:37:04;;;;;;;16.53;14.17;;;6.30;87.00;;;;;;4994047;28;20262;-90
2023/01/15 04:39:30;;;;;;;17.23;15.50;;;6.40;86.60;;;;;;4993946;28;20186;-90
2023/01/15 04:44:40;;;;;;;15.87;14.30;;;6.30;87.20;;;;;;4994199;28;20256;-90
2023/01/15 04:47:05;;;;;;;16.67;14.67;;;6.30;86.50;;;;;;4995157;28;20653;-90
2023/01/15 04:49:32;;;;;;;17.73;15.97;;;6.30;86.60;;;;;;4995094;28;20186;-89
2023/01/15 04:51:58;;;;;;;19.20;15.70;;;6.30;86.80;;;;;;4995332;28;20246;-90
2023/01/15 04:54:23;;;;;;;17.00;15.23;;;6.30;87.00;;;;;;4995192;28;20206;-90
2023/01/15 04:56:52;;;;;;;16.20;14.63;;;6.30;86.90;;;;;;4993595;28;20182;-89
2023/01/15 04:59:20;;;;;;;19.67;14.70;;;6.30;86.70;;;;;;4993685;28;20195;-90
2023/01/15 05:01:46;;;;;;;20.07;15.43;;;6.30;86.60;;;;;;4993594;28;20264;-90
2023/01/15 05:04:12;;;;;;;15.33;14.13;;;6.30;86.40;;;;;;4994733;28;20265;-90
2023/01/15 05:06:37;;;;;;;16.37;14.83;;;6.20;86.20;;;;;;4993527;28;20179;-89
2023/01/15 05:09:04;;;;;;;16.63;15.10;;;6.20;86.40;;;;;;4994740;28;20175;-90
2023/01/15 05:11:29;;;;;;;15.83;14.53;;;6.20;86.50;;;;;;4994696;28;20182;-89
2023/01/15 05:13:55;;;;;;;15.03;13.63;;;6.20;86.50;;;;;;4994545;28;20202;-89
2023/01/15 05:16:26;;;;;;;16.57;14.00;;;6.20;86.60;;;;;;4994636;28;20241;-90
2023/01/15 05:18:55;;;;;;;15.57;14.03;;;6.20;86.50;;;;;;4994727;28;20656;-90
2023/01/15 05:21:23;;;;;;;19.50;14.97;;;6.30;86.30;;;;;;4994594;28;20632;-90
2023/01/15 05:23:50;;;;;;;18.03;15.37;;;6.30;86.30;;;;;;4994357;28;20260;-90
2023/01/15 05:26:17;;;;;;;17.00;14.00;;;6.30;86.00;;;;;;4994497;28;20721;-90
2023/01/15 05:28:43;;;;;;;16.37;14.40;;;6.20;86.20;;;;;;4994565;28;20257;-90
2023/01/15 05:31:17;;;;;;;15.40;13.93;;;6.20;86.10;;;;;;4993173;28;20177;-90
2023/01/15 05:33:44;;;;;;;15.20;13.67;;;6.30;85.50;;;;;;4994109;28;20208;-89
2023/01/15 05:36:12;;;;;;;14.10;13.13;;;6.30;85.60;;;;;;4994331;28;20552;-90
2023/01/15 05:38:38;;;;;;;14.37;13.23;;;6.20;85.90;;;;;;4994225;28;20182;-90
2023/01/15 05:43:55;;;;;;;17.23;14.27;;;6.30;85.30;;;;;;4994363;28;20208;-90
2023/01/15 05:46:21;;;;;;;16.73;14.10;;;6.30;85.40;;;;;;4994189;28;20166;-89
2023/01/15 05:48:47;;;;;;;16.60;14.73;;;6.30;85.60;;;;;;4994097;28;20173;-89
2023/01/15 05:51:13;;;;;;;19.67;14.57;;;6.20;85.80;;;;;;4993937;28;20173;-90
2023/01/15 05:53:38;;;;;;;15.73;14.10;;;6.20;85.90;;;;;;4993978;28;20268;-89
2023/01/15 05:56:04;;;;;;;21.10;14.27;;;6.30;85.30;;;;;;4992836;28;20599;-90
2023/01/15 05:58:31;;;;;;;15.57;13.00;;;6.30;84.70;;;;;;4993892;28;20185;-89
2023/01/15 06:00:56;;;;;;;26.50;14.13;;;6.30;84.90;;;;;;4993883;28;20236;-89
2023/01/15 06:03:23;;;;;;;16.00;13.40;;;6.30;84.70;;;;;;4992625;28;20296;-90
2023/01/15 06:05:55;;;;;;;14.57;13.30;;;6.30;84.30;;;;;;4994173;28;20181;-89
2023/01/15 06:08:22;;;;;;;16.90;13.93;;;6.30;84.70;;;;;;4994168;28;20174;-90
2023/01/15 06:10:49;;;;;;;16.17;13.97;;;6.30;84.80;;;;;;4993908;28;20202;-89
2023/01/15 06:13:16;;;;;;;15.33;13.80;;;6.40;84.20;;;;;;4993795;28;20186;-90
2023/01/15 06:15:41;;;;;;;15.23;11.83;;;6.30;84.80;;;;;;4994084;28;20602;-90
2023/01/15 06:18:07;;;;;;;14.10;12.90;;;6.40;83.80;;;;;;4994081;28;20252;-90
2023/01/15 06:20:37;;;;;;;17.00;13.57;;;6.40;84.10;;;;;;4993664;28;20554;-90
2023/01/15 06:23:03;;;;;;;23.13;13.50;;;6.40;84.00;;;;;;4993786;28;20592;-90
2023/01/15 06:25:28;;;;;;;15.70;13.33;;;6.40;83.90;;;;;;4993634;28;20205;-89
2023/01/15 06:27:54;;;;;;;15.17;13.87;;;6.50;83.40;;;;;;4993736;28;20166;-90
2023/01/15 06:30:20;;;;;;;14.63;12.53;;;6.50;83.20;;;;;;4993708;28;20181;-90
2023/01/15 06:32:45;;;;;;;16.80;13.87;;;6.50;83.20;;;;;;4993626;28;20329;-89
2023/01/15 06:35:11;;;;;;;19.23;13.80;;;6.50;83.60;;;;;;4993733;28;20562;-89
2023/01/15 06:37:37;;;;;;;14.20;12.80;;;6.50;83.40;;;;;;4993593;28;20196;-90
2023/01/15 06:40:03;;;;;;;17.27;14.53;;;6.50;83.20;;;;;;4993814;28;20699;-90
2023/01/15 06:47:57;;;;;;;17.87;13.80;;;6.50;82.30;;;;;;4993898;28;20205;-87
2023/01/15 06:50:24;;;;;;;18.10;14.33;;;6.50;82.60;;;;;;4992568;28;20659;-89
2023/01/15 06:52:50;;;;;;;17.73;14.10;;;6.40;83.00;;;;;;4992139;28;20201;-89
2023/01/15 06:55:17;;;;;;;15.07;13.50;;;6.40;82.40;;;;;;4993713;28;20178;-89
2023/01/15 06:57:43;;;;;;;14.87;13.67;;;6.30;82.50;;;;;;4993668;28;20170;-89
2023/01/15 07:00:10;;;;;;;16.87;14.27;;;6.40;82.00;;;;;;4992287;28;20189;-89
2023/01/15 07:02:36;;;;;;;18.97;13.90;;;6.40;82.40;;;;;;4993272;28;20182;-89
2023/01/15 07:05:01;;;;;;;18.90;14.60;;;6.30;82.60;;;;;;4993654;28;20206;-90
2023/01/15 07:07:28;;;;;;;23.20;14.23;;;6.30;82.70;;;;;;4993727;28;20237;-89
2023/01/15 07:09:54;;;;;;;17.80;14.23;;;6.30;82.80;;;;;;4996760;28;20170;-90
2023/01/15 07:12:20;;;;;;;15.20;13.47;;;6.20;83.30;;;;;;4996944;28;20225;-90
2023/01/15 07:14:45;;;;;;;14.17;12.93;;;6.30;82.60;;;;;;4997021;28;20206;-89
2023/01/15 07:17:12;;;;;;;15.97;13.90;;;6.30;83.10;;;;;;4996880;28;20271;-90
2023/01/15 07:19:37;;;;;;;14.93;13.40;;;6.30;82.90;;;;;;4996715;28;20169;-89
2023/01/15 07:22:04;;;;;;;19.60;13.97;;;6.20;82.80;;;;;;4996626;28;20181;-90
2023/01/15 07:24:29;;;;;;;19.33;14.00;;;6.30;82.70;;;;;;4996698;28;20267;-90
2023/01/15 07:26:55;;;;;;;18.17;13.43;;;6.30;82.30;;;;;;4996603;28;20265;-89
2023/01/15 07:29:22;;;;;;;15.90;13.50;;;6.30;82.40;;;;;;4996790;28;20186;-89
2023/01/15 07:31:47;;;;;;;18.30;13.90;;;6.40;81.30;;;;;;4996809;28;20181;-89
2023/01/15 07:34:13;;;;;;;17.10;14.30;;;6.30;82.40;;;;;;4996502;28;20569;-89
2023/01/15 07:36:39;;;;;;;25.07;15.43;;;6.30;82.30;;;;;;4995262;28;20181;-89
2023/01/15 07:39:05;;;;;;;16.80;13.77;;;6.20;82.40;;;;;;4996690;28;20273;-90
2023/01/15 07:49:44;;;;;;;12.73;11.53;;;6.10;82.60;;;;;;4996520;28;20542;-89
2023/01/15 07:52:10;;;;;;;14.17;12.90;;;6.10;82.60;;;;;;4996212;28;20181;-89
2023/01/15 07:54:36;;;;;;;13.10;11.73;;;6.00;82.70;;;;;;4996133;28;20245;-90
2023/01/15 07:57:02;;;;;;;14.73;12.87;;;6.10;82.30;;;;;;4995010;28;20213;-89
2023/01/15 07:59:28;;;;;;;16.93;13.53;;;6.10;82.00;;;;;;4996011;28;20182;-90
2023/01/15 08:01:54;;;;;;;15.17;13.00;;;6.10;82.10;;;;;;4994823;28;20193;-90
2023/01/15 08:04:19;;;;;;;18.60;12.83;;;6.00;82.40;;;;;;4995784;28;20206;-89
2023/01/15 08:06:45;;;;;;;19.87;14.07;;;6.00;81.70;;;;;;4996187;28;20181;-89
2023/01/15 08:09:10;;;;;;;14.33;13.23;;;6.10;80.90;;;;;;4996033;28;20253;-89
2023/01/15 08:17:04;;;;;;;15.20;13.80;;;6.00;81.50;;;;;;4996197;28;20244;-89
2023/01/15 08:19:30;;;;;;;15.77;13.87;;;5.90;82.20;;;;;;4995904;28;20648;-89
2023/01/15 08:21:56;;;;;;;16.40;14.63;;;6.00;81.30;;;;;;4994732;28;20640;-89
2023/01/15 08:24:23;;;;;;;16.17;14.47;;;6.00;81.50;;;;;;4995352;28;20255;-89
2023/01/15 08:26:48;;;;;;;14.07;12.90;;;5.90;81.70;;;;;;4994297;28;20536;-89
2023/01/15 08:29:14;;;;;;;19.53;15.43;;;5.90;82.00;;;;;;4995691;28;20178;-89
2023/01/15 08:31:40;;;;;;;20.10;14.23;;;5.90;81.80;;;;;;4995493;28;20178;-89
2023/01/15 08:34:09;;;;;;;15.23;13.70;;;5.90;82.10;;;;;;4994228;28;20204;-89
2023/01/15 08:36:34;;;;;;;14.97;13.53;;;5.80;82.20;;;;;;4995352;28;20228;-89
2023/01/15 08:39:00;;;;;;;16.63;14.50;;;5.90;81.80;;;;;;4995299;28;20171;-89
2023/01/15 08:41:26;;;;;;;15.50;14.03;;;5.80;82.80;;;;;;4995306;28;20186;-89
2023/01/15 08:43:52;;;;;;;16.37;15.00;;;5.80;82.80;;;;;;4995135;28;20296;-89
2023/01/15 08:46:17;;;;;;;16.10;14.50;;;5.80;82.70;;;;;;4995472;28;20729;-89
2023/01/15 08:48:43;;;;;;;17.70;14.57;;;5.80;82.30;;;;;;4995227;28;20683;-89
2023/01/15 08:51:10;;;;;;;20.37;15.03;;;5.90;82.30;;;;;;4995349;28;20178;-87
2023/01/15 08:53:36;;;;;;;15.53;14.13;;;5.90;82.50;;;;;;4995369;28;20198;-89
2023/01/15 08:56:01;;;;;;;15.50;14.10;;;5.90;82.50;;;;;;4993717;28;20691;-89
2023/01/15 08:58:28;;;;;;;16.03;14.37;;;5.80;82.50;;;;;;4993864;28;20264;-88
2023/01/15 09:00:54;;;;;;;15.40;13.80;;;5.90;82.50;;;;;;4994968;28;20314;-89
2023/01/15 09:03:20;;;;;;;20.07;14.37;;;5.80;82.90;;;;;;4993434;28;20233;-89
2023/01/15 09:05:45;;;;;;;16.27;14.60;;;6.00;82.00;;;;;;4993650;28;20630;-89
2023/01/15 09:08:11;;;;;;;16.70;15.17;;;6.00;82.20;;;;;;4994745;28;20178;-89
2023/01/15 09:10:36;;;;;;;17.03;13.73;;;6.00;81.90;;;;;;4995002;28;20205;-89
2023/01/15 09:13:03;;;;;;;16.77;15.20;;;6.10;81.90;;;;;;4993951;28;20236;-89
2023/01/15 09:15:30;;;;;;;20.63;13.90;;;6.10;81.80;;;;;;4994620;28;20666;-89
2023/01/15 09:17:56;;;;;;;15.90;14.20;;;6.20;82.20;;;;;;4994714;28;20181;-89
2023/01/15 09:20:21;;;;;;;17.47;15.80;;;6.30;82.20;;;;;;4994631;28;20178;-89
2023/01/15 09:22:47;;;;;;;16.70;14.97;;;6.30;80.80;;;;;;4994342;28;20568;-89
2023/01/15 09:25:15;;;;;;;16.90;15.40;;;6.40;81.60;;;;;;4993276;28;20198;-89
2023/01/15 09:27:41;;;;;;;22.23;16.50;;;6.40;81.20;;;;;;4994440;28;20174;-89
2023/01/15 09:30:09;;;;;;;17.93;14.40;;;6.30;81.40;;;;;;4993200;28;20185;-90
2023/01/15 09:32:34;;;;;;;16.30;14.90;;;6.30;81.00;;;;;;4993817;28;20606;-88
2023/01/15 09:35:01;;;;;;;19.70;15.13;;;6.30;80.80;;;;;;4994952;28;20174;-89
2023/01/15 09:37:26;;;;;;;16.80;15.33;;;6.30;81.60;;;;;;4993161;28;20259;-89
2023/01/15 09:39:52;;;;;;;17.87;16.13;;;6.40;78.50;;;;;;4994609;28;20182;-88
2023/01/15 09:42:38;;;;;;;17.17;15.80;;;6.40;79.00;;;;;;4994166;28;20178;-90
2023/01/15 09:45:21;;;;;;;18.17;16.40;;;6.40;79.20;;;;;;4992920;28;20204;-89
2023/01/15 09:47:55;;;;;;;23.20;21.77;;;6.30;79.30;;;;;;4994584;28;20212;-90
2023/01/15 09:50:38;;;;;;;25.50;23.37;;;6.40;77.90;;;;;;4992799;28;20185;-90
2023/01/15 09:53:30;;;;;;;24.53;22.10;;;6.40;76.70;;;;;;4994079;28;20186;-90
2023/01/15 09:55:58;;;;;;;22.47;20.80;;;6.30;77.70;;;;;;4993491;28;20158;-90
2023/01/15 09:58:37;;;;;;;21.47;19.93;;;6.40;78.30;;;;;;4994368;28;20580;-89
2023/01/15 10:01:03;;;;;;;23.47;21.37;;;6.40;76.90;;;;;;4992850;28;20166;-89
2023/01/15 10:03:36;;;;;;;22.63;21.00;;;6.40;76.40;;;;;;4993931;28;20192;-90
2023/01/15 10:06:08;;;;;;;22.13;20.33;;;6.40;75.90;;;;;;4994242;28;20158;-89
2023/01/15 10:08:41;;;;;;;20.33;18.67;;;6.40;75.30;;;;;;4994545;28;20638;-88
2023/01/15 10:11:16;;;;;;;22.13;20.33;;;6.40;77.90;;;;;;4994065;28;20171;-89
2023/01/15 10:13:50;;;;;;;19.77;18.27;;;6.40;75.40;;;;;;4992966;28;20705;-89
2023/01/15 10:16:28;;;;;;;20.03;18.43;;;6.40;75.90;;;;;;4994140;28;20219;-89
2023/01/15 10:18:57;;;;;;;20.13;18.57;;;6.40;75.80;;;;;;4993857;28;20162;-90
2023/01/15 10:21:54;;;;;;;22.50;20.17;;;6.40;75.80;;;;;;4992654;28;20185;-89
2023/01/15 10:24:35;;;;;;;21.70;19.83;;;6.40;76.50;;;;;;4993924;28;20217;-88
2023/01/15 10:27:17;;;;;;;19.83;18.37;;;6.40;75.20;;;;;;4992694;28;20166;-87
2023/01/15 10:29:48;;;;;;;21.20;19.67;;;6.30;75.50;;;;;;4993435;28;20170;-87
2023/01/15 10:32:32;;;;;;;20.33;18.77;;;6.30;76.00;;;;;;4992832;28;20166;-89
2023/01/15 10:35:19;;;;;;;19.40;18.20;;;6.40;75.20;;;;;;4992550;28;20178;-89
2023/01/15 10:37:56;;;;;;;19.13;17.73;;;6.40;75.70;;;;;;4993671;28;20166;-90
2023/01/15 10:40:51;;;;;;;18.87;17.17;;;6.40;75.10;;;;;;4992546;28;20228;-90
2023/01/15 10:43:30;;;;;;;21.07;17.50;;;6.50;76.50;;;;;;4984039;28;20213;-88
2023/01/15 10:45:59;;;;;;;20.33;18.67;;;6.50;77.10;;;;;;4997399;28;20185;-89
2023/01/15 10:48:40;;;;;;;18.93;17.57;;;6.40;75.20;;;;;;4997697;28;20223;-89
2023/01/15 10:51:19;;;;;;;19.20;17.63;;;6.40;77.30;;;;;;4996208;28;20166;-89
2023/01/15 10:53:57;;;;;;;19.77;18.20;;;6.50;75.40;;;;;;4997301;28;20186;-88
2023/01/15 10:56:41;;;;;;;19.77;18.27;;;6.50;75.10;;;;;;4997397;28;20531;-89
2023/01/15 10:59:17;;;;;;;19.80;18.40;;;6.50;76.60;;;;;;4995978;28;20177;-89
2023/01/15 11:01:43;;;;;;;20.70;18.90;;;6.50;77.30;;;;;;4996081;28;20169;-89
2023/01/15 11:04:13;;;;;;;19.47;17.87;;;6.50;76.30;;;;;;4996928;28;20216;-89
2023/01/15 11:06:39;;;;;;;17.83;16.10;;;6.50;76.90;;;;;;4997175;28;20170;-88
2023/01/15 11:09:05;;;;;;;17.00;15.47;;;6.40;75.80;;;;;;4995789;28;20189;-88
2023/01/15 11:20:33;;;;;;;17.87;16.37;;;6.70;76.30;;;;;;4997350;28;20169;-89
2023/01/15 11:23:17;;;;;;;17.90;16.33;;;6.60;75.10;;;;;;4996669;28;20204;-89
2023/01/15 11:25:50;;;;;;;17.47;16.17;;;6.50;76.40;;;;;;4996892;28;20190;-88
2023/01/15 11:28:17;;;;;;;15.87;14.73;;;6.70;75.60;;;;;;4996977;28;20576;-89
2023/01/15 11:30:54;;;;;;;16.27;15.17;;;6.60;76.60;;;;;;4997305;28;20176;-89
2023/01/15 11:33:26;;;;;;;16.67;15.40;;;6.40;76.30;;;;;;4996724;28;20277;-89
2023/01/15 11:35:57;;;;;;;17.83;16.07;;;6.50;76.30;;;;;;4996887;28;20162;-89
2023/01/15 11:38:24;;;;;;;17.13;15.70;;;6.50;76.60;;;;;;4995396;28;20641;-89
2023/01/15 11:40:52;;;;;;;15.87;14.80;;;6.50;76.90;;;;;;4996785;28;20233;-90
2023/01/15 11:51:42;;;;;;;17.20;15.93;;;6.70;76.40;;;;;;4996616;28;20189;-89
2023/01/15 11:54:12;;;;;;;16.50;15.40;;;6.40;76.10;;;;;;4995824;28;20269;-90
2023/01/15 11:56:42;;;;;;;15.40;14.33;;;6.30;76.00;;;;;;4995500;28;20185;-88
2023/01/15 11:59:18;;;;;;;15.63;14.20;;;6.40;75.90;;;;;;4995119;28;20174;-90
2023/01/15 12:01:56;;;;;;;15.27;14.43;;;6.60;75.40;;;;;;4996359;28;20177;-89
2023/01/15 12:04:53;;;;;;;21.47;15.80;;;6.60;76.30;;;;;;4995660;28;20206;-90
2023/01/15 12:07:23;;;;;;;14.70;13.60;;;6.60;77.10;;;;;;4996027;28;20262;-89
2023/01/15 12:09:48;;;;;;;14.77;13.53;;;6.60;78.30;;;;;;4999849;28;20174;-91
2023/01/15 12:12:34;;;;;;;13.90;13.07;;;6.60;77.50;;;;;;4998314;28;20174;-90
2023/01/15 12:15:15;;;;;;;14.73;13.17;;;6.60;77.70;;;;;;4994976;28;20169;-89
2023/01/15 12:17:43;;;;;;;15.03;14.13;;;6.50;77.90;;;;;;4996085;28;20248;-89
2023/01/15 12:20:51;;;;;;;15.13;14.00;;;6.70;77.80;;;;;;4995720;28;20181;-88
2023/01/15 12:23:38;;;;;;;14.80;13.70;;;6.50;76.90;;;;;;4995159;28;20264;-89
2023/01/15 12:26:33;;;;;;;13.27;12.47;;;6.40;78.60;;;;;;4994378;28;20181;-88
2023/01/15 12:29:11;;;;;;;13.83;12.97;;;6.40;78.40;;;;;;4994972;28;20181;-88
2023/01/15 12:31:51;;;;;;;13.13;12.23;;;6.40;79.20;;;;;;4995574;28;20161;-89
2023/01/15 12:34:31;;;;;;;13.03;12.10;;;6.30;79.70;;;;;;4995341;28;20214;-87
2023/01/15 12:37:09;;;;;;;12.23;11.53;;;6.30;79.00;;;;;;4995835;28;20158;-87
2023/01/15 12:40:02;;;;;;;11.90;11.20;;;6.20;80.50;;;;;;4994489;28;20174;-87
2023/01/15 12:45:19;;;;;;;11.90;11.10;;;5.90;82.20;;;;;;4995662;28;20209;-86
2023/01/15 12:48:16;;;;;;;11.00;10.40;;;5.80;81.50;;;;;;4994045;28;20197;-86
2023/01/15 12:50:53;;;;;;;11.53;10.63;;;5.80;81.60;;;;;;4993999;28;20179;-88
2023/01/15 12:53:44;;;;;;;12.37;11.37;;;5.80;82.10;;;;;;4993975;28;20286;-86
2023/01/15 12:56:17;;;;;;;11.90;10.80;;;5.80;82.00;;;;;;4995477;28;20281;-86
2023/01/15 12:59:07;;;;;;;10.67;9.97;;;5.80;82.00;;;;;;4993610;28;20670;-87
2023/01/15 13:01:44;;;;;;;11.43;10.63;;;5.90;82.40;;;;;;4993882;28;20177;-89
2023/01/15 13:04:33;;;;;;;10.50;9.80;;;5.80;81.60;;;;;;4994795;28;20248;-89
2023/01/15 13:07:16;;;;;;;10.90;10.20;;;5.80;83.10;;;;;;4994129;28;20623;-88
2023/01/15 13:09:54;;;;;;;11.33;10.53;;;5.80;82.20;;;;;;4994014;28;20695;-90
2023/01/15 13:12:20;;;;;;;11.33;10.43;;;5.80;82.30;;;;;;4993615;28;20248;-90
2023/01/15 13:14:46;;;;;;;14.37;11.07;;;5.80;82.70;;;;;;4993407;28;20217;-90
2023/01/15 13:17:49;;;;;;;12.43;11.40;;;5.80;82.10;;;;;;4994605;28;20414;-90
2023/01/15 13:20:39;;;;;;;11.90;11.20;;;5.90;81.50;;;;;;4994601;28;20181;-88
2023/01/15 13:23:35;;;;;;;12.50;11.40;;;6.00;80.10;;;;;;4993633;28;20242;-86
2023/01/15 13:26:09;;;;;;;13.03;11.37;;;6.00;81.20;;;;;;4993362;28;20184;-88
2023/01/15 13:28:35;;;;;;;20.10;12.43;;;6.00;80.90;;;;;;4993603;28;20177;-88
2023/01/15 13:31:47;;;;;;;13.50;11.93;;;6.10;79.90;;;;;;4994325;28;20182;-89
2023/01/15 13:34:18;;;;;;;12.60;11.70;;;6.10;80.50;;;;;;4994658;28;20232;-89
2023/01/15 13:36:45;;;;;;;12.93;11.80;;;6.10;80.30;;;;;;4993326;28;20173;-89
2023/01/15 13:39:27;;;;;;;13.90;12.03;;;6.20;80.10;;;;;;4994558;28;20317;-88
2023/01/15 13:44:46;;;;;;;13.13;11.70;;;6.30;79.40;;;;;;4994924;28;20575;-89
2023/01/15 13:47:18;;;;;;;12.73;11.40;;;6.30;79.80;;;;;;4993091;28;20174;-89